sensor_id;sensor_type;location;lat;lon;timestamp;temperature;humidity
16666;DHT22;8446;50.998;6.250;2023-04-15T00:00:17;5.40;99.90
16666;DHT22;8446;50.998;6.250;2023-04-15T00:02:45;5.40;99.90
16666;DHT22;8446;50.998;6.250;2023-04-15T00:05:12;5.50;99.90
16666;DHT22;8446;50.998;6.250;2023-04-15T00:07:39;5.60;99.90
16666;DHT22;8446;50.998;6.250;2023-04-15T00:10:07;5.50;99.90
16666;DHT22;8446;50.998;6.250;2023-04-15T00:12:34;5.50;99.90
16666;DHT22;8446;50.998;6.250;2023-04-15T00:15:02;5.60;99.90
16666;DHT22;8446;50.998;6.250;2023-04-15T00:17:29;5.70;99.90
16666;DHT22;8446;50.998;6.250;2023-04-15T00:19:56;5.70;99.90
16666;DHT22;8446;50.998;6.250;2023-04-15T00:22:24;5.70;99.90
16666;DHT22;8446;50.998;6.250;2023-04-15T00:24:52;5.80;99.90
16666;DHT22;8446;50.998;6.250;2023-04-15T00:27:19;5.70;99.90
16666;DHT22;8446;50.998;6.250;2023-04-15T00:29:45;5.60;99.90
16666;DHT22;8446;50.998;6.250;2023-04-15T00:32:14;5.60;99.90
16666;DHT22;8446;50.998;6.250;2023-04-15T00:34:41;5.50;99.90
16666;DHT22;8446;50.998;6.250;2023-04-15T00:37:08;5.60;99.90
16666;DHT22;8446;50.998;6.250;2023-04-15T00:39:35;5.60;99.90
16666;DHT22;8446;50.998;6.250;2023-04-15T00:42:03;5.60;99.90
16666;DHT22;8446;50.998;6.250;2023-04-15T00:44:30;5.50;99.90
16666;DHT22;8446;50.998;6.250;2023-04-15T00:47:00;5.40;99.90
16666;DHT22;8446;50.998;6.250;2023-04-15T00:49:29;5.20;99.90
16666;DHT22;8446;50.998;6.250;2023-04-15T00:51:56;5.20;99.90
16666;DHT22;8446;50.998;6.250;2023-04-15T00:54:23;5.20;99.90
16666;DHT22;8446;50.998;6.250;2023-04-15T00:56:51;5.20;99.90
16666;DHT22;8446;50.998;6.250;2023-04-15T00:59:18;5.10;99.90
16666;DHT22;8446;50.998;6.250;2023-04-15T01:01:46;5.10;99.90
16666;DHT22;8446;50.998;6.250;2023-04-15T01:04:12;5.10;99.90
16666;DHT22;8446;50.998;6.250;2023-04-15T01:06:41;5.10;99.90
16666;DHT22;8446;50.998;6.250;2023-04-15T01:09:07;5.10;99.90
16666;DHT22;8446;50.998;6.250;2023-04-15T01:11:35;5.10;99.90
16666;DHT22;8446;50.998;6.250;2023-04-15T01:14:02;5.10;99.90
16666;DHT22;8446;50.998;6.250;2023-04-15T01:16:30;5.10;99.90
16666;DHT22;8446;50.998;6.250;2023-04-15T01:18:57;5.10;99.90
16666;DHT22;8446;50.998;6.250;2023-04-15T01:21:24;5.00;99.90
16666;DHT22;8446;50.998;6.250;2023-04-15T01:23:54;5.00;99.90
16666;DHT22;8446;50.998;6.250;2023-04-15T01:26:24;5.00;99.90
16666;DHT22;8446;50.998;6.250;2023-04-15T01:28:51;5.00;99.90
16666;DHT22;8446;50.998;6.250;2023-04-15T01:31:18;5.00;99.90
16666;DHT22;8446;50.998;6.250;2023-04-15T01:33:45;5.00;99.90
16666;DHT22;8446;50.998;6.250;2023-04-15T01:36:12;4.80;99.90
16666;DHT22;8446;50.998;6.250;2023-04-15T01:38:38;4.90;99.90
16666;DHT22;8446;50.998;6.250;2023-04-15T01:41:05;4.70;99.90
16666;DHT22;8446;50.998;6.250;2023-04-15T01:43:34;4.70;99.90
16666;DHT22;8446;50.998;6.250;2023-04-15T01:46:01;4.50;99.90
16666;DHT22;8446;50.998;6.250;2023-04-15T01:48:28;4.30;99.90
16666;DHT22;8446;50.998;6.250;2023-04-15T01:50:56;4.30;99.90
16666;DHT22;8446;50.998;6.250;2023-04-15T01:53:24;4.20;99.90
16666;DHT22;8446;50.998;6.250;2023-04-15T01:55:51;4.20;99.90
16666;DHT22;8446;50.998;6.250;2023-04-15T01:58:18;4.20;99.90
16666;DHT22;8446;50.998;6.250;2023-04-15T02:00:46;4.20;99.90
16666;DHT22;8446;50.998;6.250;2023-04-15T02:03:13;4.20;99.90
16666;DHT22;8446;50.998;6.250;2023-04-15T02:05:40;4.20;99.90
16666;DHT22;8446;50.998;6.250;2023-04-15T02:08:07;4.20;99.90
16666;DHT22;8446;50.998;6.250;2023-04-15T02:10:34;4.10;99.90
16666;DHT22;8446;50.998;6.250;2023-04-15T02:13:01;4.10;99.90
16666;DHT22;8446;50.998;6.250;2023-04-15T02:15:28;4.10;99.90
16666;DHT22;8446;50.998;6.250;2023-04-15T02:17:56;4.20;99.90
16666;DHT22;8446;50.998;6.250;2023-04-15T02:20:25;4.20;99.90
16666;DHT22;8446;50.998;6.250;2023-04-15T02:22:52;4.30;99.90
16666;DHT22;8446;50.998;6.250;2023-04-15T02:25:19;4.40;99.90
16666;DHT22;8446;50.998;6.250;2023-04-15T02:27:46;4.50;99.90
16666;DHT22;8446;50.998;6.250;2023-04-15T02:30:12;4.50;99.90
16666;DHT22;8446;50.998;6.250;2023-04-15T02:32:40;4.50;99.90
16666;DHT22;8446;50.998;6.250;2023-04-15T02:35:10;4.60;99.90
16666;DHT22;8446;50.998;6.250;2023-04-15T02:37:37;4.60;99.90
16666;DHT22;8446;50.998;6.250;2023-04-15T02:40:08;4.70;99.90
16666;DHT22;8446;50.998;6.250;2023-04-15T02:42:37;4.70;99.90
16666;DHT22;8446;50.998;6.250;2023-04-15T02:45:04;4.70;99.90
16666;DHT22;8446;50.998;6.250;2023-04-15T02:47:31;4.60;99.90
16666;DHT22;8446;50.998;6.250;2023-04-15T02:49:58;4.50;99.90
16666;DHT22;8446;50.998;6.250;2023-04-15T02:52:27;4.40;99.90
16666;DHT22;8446;50.998;6.250;2023-04-15T02:54:54;4.40;99.90
16666;DHT22;8446;50.998;6.250;2023-04-15T02:57:25;4.40;99.90
16666;DHT22;8446;50.998;6.250;2023-04-15T02:59:52;4.30;99.90
16666;DHT22;8446;50.998;6.250;2023-04-15T03:02:19;4.30;99.90
16666;DHT22;8446;50.998;6.250;2023-04-15T03:04:46;4.20;99.90
16666;DHT22;8446;50.998;6.250;2023-04-15T03:07:13;4.20;99.90
16666;DHT22;8446;50.998;6.250;2023-04-15T03:09:41;4.20;99.90
16666;DHT22;8446;50.998;6.250;2023-04-15T03:12:09;4.20;99.90
16666;DHT22;8446;50.998;6.250;2023-04-15T03:14:35;4.10;99.90
16666;DHT22;8446;50.998;6.250;2023-04-15T03:17:02;4.10;99.90
16666;DHT22;8446;50.998;6.250;2023-04-15T03:19:29;4.10;99.90
16666;DHT22;8446;50.998;6.250;2023-04-15T03:21:56;4.10;99.90
16666;DHT22;8446;50.998;6.250;2023-04-15T03:24:23;4.10;99.90
16666;DHT22;8446;50.998;6.250;2023-04-15T03:26:51;4.00;99.90
16666;DHT22;8446;50.998;6.250;2023-04-15T03:29:19;4.00;99.90
16666;DHT22;8446;50.998;6.250;2023-04-15T03:31:46;4.10;99.90
16666;DHT22;8446;50.998;6.250;2023-04-15T03:34:13;4.10;99.90
16666;DHT22;8446;50.998;6.250;2023-04-15T03:36:40;4.10;99.90
16666;DHT22;8446;50.998;6.250;2023-04-15T03:39:06;4.00;99.90
16666;DHT22;8446;50.998;6.250;2023-04-15T03:41:34;4.00;99.90
16666;DHT22;8446;50.998;6.250;2023-04-15T03:44:02;3.90;99.90
16666;DHT22;8446;50.998;6.250;2023-04-15T03:46:28;4.00;99.90
16666;DHT22;8446;50.998;6.250;2023-04-15T03:48:55;3.90;99.90
16666;DHT22;8446;50.998;6.250;2023-04-15T03:51:22;3.90;99.90
16666;DHT22;8446;50.998;6.250;2023-04-15T03:53:49;3.90;99.90
16666;DHT22;8446;50.998;6.250;2023-04-15T03:56:16;3.80;99.90
16666;DHT22;8446;50.998;6.250;2023-04-15T03:58:43;3.80;99.90
16666;DHT22;8446;50.998;6.250;2023-04-15T04:01:11;3.80;99.90
16666;DHT22;8446;50.998;6.250;2023-04-15T04:03:38;3.80;99.90
16666;DHT22;8446;50.998;6.250;2023-04-15T04:06:05;3.70;99.90
16666;DHT22;8446;50.998;6.250;2023-04-15T04:08:32;3.60;99.90
16666;DHT22;8446;50.998;6.250;2023-04-15T04:10:59;3.50;99.90
16666;DHT22;8446;50.998;6.250;2023-04-15T04:13:25;3.40;99.90
16666;DHT22;8446;50.998;6.250;2023-04-15T04:15:52;3.40;99.90
16666;DHT22;8446;50.998;6.250;2023-04-15T04:18:20;3.40;99.90
16666;DHT22;8446;50.998;6.250;2023-04-15T04:20:47;3.30;99.90
16666;DHT22;8446;50.998;6.250;2023-04-15T04:23:14;3.30;99.90
16666;DHT22;8446;50.998;6.250;2023-04-15T04:25:41;3.30;99.90
16666;DHT22;8446;50.998;6.250;2023-04-15T04:28:08;3.20;99.90
16666;DHT22;8446;50.998;6.250;2023-04-15T04:30:36;3.10;99.90
16666;DHT22;8446;50.998;6.250;2023-04-15T04:33:02;3.10;99.90
16666;DHT22;8446;50.998;6.250;2023-04-15T04:35:31;3.10;99.90
16666;DHT22;8446;50.998;6.250;2023-04-15T04:38:02;3.10;99.90
16666;DHT22;8446;50.998;6.250;2023-04-15T04:40:29;3.10;99.90
16666;DHT22;8446;50.998;6.250;2023-04-15T04:42:56;3.00;99.90
16666;DHT22;8446;50.998;6.250;2023-04-15T04:45:23;3.00;99.90
16666;DHT22;8446;50.998;6.250;2023-04-15T04:47:50;3.00;99.90
16666;DHT22;8446;50.998;6.250;2023-04-15T04:50:16;3.00;99.90
16666;DHT22;8446;50.998;6.250;2023-04-15T04:52:45;3.00;99.90
16666;DHT22;8446;50.998;6.250;2023-04-15T04:55:12;3.10;99.90
16666;DHT22;8446;50.998;6.250;2023-04-15T04:57:38;3.10;99.90
16666;DHT22;8446;50.998;6.250;2023-04-15T05:00:06;3.20;99.90
16666;DHT22;8446;50.998;6.250;2023-04-15T05:02:34;3.20;99.90
16666;DHT22;8446;50.998;6.250;2023-04-15T05:05:01;3.20;99.90
16666;DHT22;8446;50.998;6.250;2023-04-15T05:07:28;3.30;99.90
16666;DHT22;8446;50.998;6.250;2023-04-15T05:09:56;3.30;99.90
16666;DHT22;8446;50.998;6.250;2023-04-15T05:12:23;3.20;99.90
16666;DHT22;8446;50.998;6.250;2023-04-15T05:14:50;3.30;99.90
16666;DHT22;8446;50.998;6.250;2023-04-15T05:17:16;3.40;99.90
16666;DHT22;8446;50.998;6.250;2023-04-15T05:19:43;3.40;99.90
16666;DHT22;8446;50.998;6.250;2023-04-15T05:22:10;3.50;99.90
16666;DHT22;8446;50.998;6.250;2023-04-15T05:24:37;3.50;99.90
16666;DHT22;8446;50.998;6.250;2023-04-15T05:27:05;3.60;99.90
16666;DHT22;8446;50.998;6.250;2023-04-15T05:29:33;3.60;99.90
16666;DHT22;8446;50.998;6.250;2023-04-15T05:32:00;3.70;99.90
16666;DHT22;8446;50.998;6.250;2023-04-15T05:34:26;3.80;99.90
16666;DHT22;8446;50.998;6.250;2023-04-15T05:36:53;3.90;99.90
16666;DHT22;8446;50.998;6.250;2023-04-15T05:39:20;3.90;99.90
16666;DHT22;8446;50.998;6.250;2023-04-15T05:41:47;4.10;99.90
16666;DHT22;8446;50.998;6.250;2023-04-15T05:44:15;4.20;99.90
16666;DHT22;8446;50.998;6.250;2023-04-15T05:46:41;4.30;99.90
16666;DHT22;8446;50.998;6.250;2023-04-15T05:49:08;4.40;99.90
16666;DHT22;8446;50.998;6.250;2023-04-15T05:51:35;4.50;99.90
16666;DHT22;8446;50.998;6.250;2023-04-15T05:54:02;4.60;99.90
16666;DHT22;8446;50.998;6.250;2023-04-15T05:56:29;4.70;99.90
16666;DHT22;8446;50.998;6.250;2023-04-15T05:58:56;4.80;99.90
16666;DHT22;8446;50.998;6.250;2023-04-15T06:01:24;4.90;99.90
16666;DHT22;8446;50.998;6.250;2023-04-15T06:03:51;5.00;99.90
16666;DHT22;8446;50.998;6.250;2023-04-15T06:06:17;5.10;99.90
16666;DHT22;8446;50.998;6.250;2023-04-15T06:08:44;5.20;99.90
16666;DHT22;8446;50.998;6.250;2023-04-15T06:11:11;5.30;99.90
16666;DHT22;8446;50.998;6.250;2023-04-15T06:13:38;5.50;99.90
16666;DHT22;8446;50.998;6.250;2023-04-15T06:16:05;5.60;99.90
16666;DHT22;8446;50.998;6.250;2023-04-15T06:18:33;5.70;99.90
16666;DHT22;8446;50.998;6.250;2023-04-15T06:21:00;5.80;99.90
16666;DHT22;8446;50.998;6.250;2023-04-15T06:23:27;6.00;99.90
16666;DHT22;8446;50.998;6.250;2023-04-15T06:25:54;6.10;99.90
16666;DHT22;8446;50.998;6.250;2023-04-15T06:28:21;6.30;99.90
16666;DHT22;8446;50.998;6.250;2023-04-15T06:30:47;6.40;99.90
16666;DHT22;8446;50.998;6.250;2023-04-15T06:33:14;6.60;99.90
16666;DHT22;8446;50.998;6.250;2023-04-15T06:35:42;6.70;99.90
16666;DHT22;8446;50.998;6.250;2023-04-15T06:38:09;6.90;99.90
16666;DHT22;8446;50.998;6.250;2023-04-15T06:40:36;7.00;99.90
16666;DHT22;8446;50.998;6.250;2023-04-15T06:43:03;7.20;99.90
16666;DHT22;8446;50.998;6.250;2023-04-15T06:45:30;7.40;99.90
16666;DHT22;8446;50.998;6.250;2023-04-15T06:47:57;7.60;99.90
16666;DHT22;8446;50.998;6.250;2023-04-15T06:50:24;7.80;99.90
16666;DHT22;8446;50.998;6.250;2023-04-15T06:52:52;8.00;99.90
16666;DHT22;8446;50.998;6.250;2023-04-15T06:55:20;8.20;99.90
16666;DHT22;8446;50.998;6.250;2023-04-15T06:57:47;8.30;99.90
16666;DHT22;8446;50.998;6.250;2023-04-15T07:00:14;8.50;99.90
16666;DHT22;8446;50.998;6.250;2023-04-15T07:02:41;8.50;99.90
16666;DHT22;8446;50.998;6.250;2023-04-15T07:05:08;8.60;99.90
16666;DHT22;8446;50.998;6.250;2023-04-15T07:07:34;8.70;99.90
16666;DHT22;8446;50.998;6.250;2023-04-15T07:10:03;8.70;99.90
16666;DHT22;8446;50.998;6.250;2023-04-15T07:12:30;8.80;99.90
16666;DHT22;8446;50.998;6.250;2023-04-15T07:14:57;8.80;99.90
16666;DHT22;8446;50.998;6.250;2023-04-15T07:17:24;8.80;99.90
16666;DHT22;8446;50.998;6.250;2023-04-15T07:19:50;8.90;99.90
16666;DHT22;8446;50.998;6.250;2023-04-15T07:22:17;9.00;99.90
16666;DHT22;8446;50.998;6.250;2023-04-15T07:24:44;9.00;99.90
16666;DHT22;8446;50.998;6.250;2023-04-15T07:27:12;8.90;99.90
16666;DHT22;8446;50.998;6.250;2023-04-15T07:29:39;9.00;99.90
16666;DHT22;8446;50.998;6.250;2023-04-15T07:32:06;9.00;99.90
16666;DHT22;8446;50.998;6.250;2023-04-15T07:34:35;9.10;99.90
16666;DHT22;8446;50.998;6.250;2023-04-15T07:37:02;9.10;99.90
16666;DHT22;8446;50.998;6.250;2023-04-15T07:39:29;9.20;99.90
16666;DHT22;8446;50.998;6.250;2023-04-15T07:41:56;9.20;99.90
16666;DHT22;8446;50.998;6.250;2023-04-15T07:44:25;9.30;99.90
16666;DHT22;8446;50.998;6.250;2023-04-15T07:46:52;9.30;99.90
16666;DHT22;8446;50.998;6.250;2023-04-15T07:49:19;9.40;99.90
16666;DHT22;8446;50.998;6.250;2023-04-15T07:51:46;9.50;99.90
16666;DHT22;8446;50.998;6.250;2023-04-15T07:54:13;9.50;99.90
16666;DHT22;8446;50.998;6.250;2023-04-15T07:56:40;9.50;99.90
16666;DHT22;8446;50.998;6.250;2023-04-15T07:59:06;9.60;99.90
16666;DHT22;8446;50.998;6.250;2023-04-15T08:01:35;9.80;99.90
16666;DHT22;8446;50.998;6.250;2023-04-15T08:04:03;10.00;99.90
16666;DHT22;8446;50.998;6.250;2023-04-15T08:06:30;10.10;99.90
16666;DHT22;8446;50.998;6.250;2023-04-15T08:08:57;10.30;99.90
16666;DHT22;8446;50.998;6.250;2023-04-15T08:11:24;10.40;99.90
16666;DHT22;8446;50.998;6.250;2023-04-15T08:13:52;10.60;99.90
16666;DHT22;8446;50.998;6.250;2023-04-15T08:16:20;10.60;99.90
16666;DHT22;8446;50.998;6.250;2023-04-15T08:18:50;10.60;99.90
16666;DHT22;8446;50.998;6.250;2023-04-15T08:21:17;10.60;99.90
16666;DHT22;8446;50.998;6.250;2023-04-15T08:23:46;10.70;99.90
16666;DHT22;8446;50.998;6.250;2023-04-15T08:26:15;10.90;99.90
16666;DHT22;8446;50.998;6.250;2023-04-15T08:28:44;11.10;99.90
16666;DHT22;8446;50.998;6.250;2023-04-15T08:31:11;11.20;99.90
16666;DHT22;8446;50.998;6.250;2023-04-15T08:33:38;11.40;99.90
16666;DHT22;8446;50.998;6.250;2023-04-15T08:36:06;11.60;99.90
16666;DHT22;8446;50.998;6.250;2023-04-15T08:38:33;11.90;99.90
16666;DHT22;8446;50.998;6.250;2023-04-15T08:41:03;12.00;99.90
16666;DHT22;8446;50.998;6.250;2023-04-15T08:43:34;11.80;99.90
16666;DHT22;8446;50.998;6.250;2023-04-15T08:46:01;11.80;99.90
16666;DHT22;8446;50.998;6.250;2023-04-15T08:48:32;11.90;99.90
16666;DHT22;8446;50.998;6.250;2023-04-15T08:51:00;12.00;99.90
16666;DHT22;8446;50.998;6.250;2023-04-15T08:53:29;12.00;99.90
16666;DHT22;8446;50.998;6.250;2023-04-15T08:55:57;12.20;99.90
16666;DHT22;8446;50.998;6.250;2023-04-15T08:58:25;12.40;99.90
16666;DHT22;8446;50.998;6.250;2023-04-15T09:00:53;12.60;99.90
16666;DHT22;8446;50.998;6.250;2023-04-15T09:03:20;12.80;99.90
16666;DHT22;8446;50.998;6.250;2023-04-15T09:05:49;13.00;99.90
16666;DHT22;8446;50.998;6.250;2023-04-15T09:08:16;13.30;99.90
16666;DHT22;8446;50.998;6.250;2023-04-15T09:10:44;13.00;99.90
16666;DHT22;8446;50.998;6.250;2023-04-15T09:13:11;13.20;99.90
16666;DHT22;8446;50.998;6.250;2023-04-15T09:15:41;13.30;99.90
16666;DHT22;8446;50.998;6.250;2023-04-15T09:18:10;13.20;99.90
16666;DHT22;8446;50.998;6.250;2023-04-15T09:20:39;13.10;99.90
16666;DHT22;8446;50.998;6.250;2023-04-15T09:23:14;13.30;99.90
16666;DHT22;8446;50.998;6.250;2023-04-15T09:25:43;13.60;99.90
16666;DHT22;8446;50.998;6.250;2023-04-15T09:28:10;13.90;99.90
16666;DHT22;8446;50.998;6.250;2023-04-15T09:30:37;14.20;99.90
16666;DHT22;8446;50.998;6.250;2023-04-15T09:33:04;14.20;99.90
16666;DHT22;8446;50.998;6.250;2023-04-15T09:35:33;14.40;99.90
16666;DHT22;8446;50.998;6.250;2023-04-15T09:38:02;14.60;99.90
16666;DHT22;8446;50.998;6.250;2023-04-15T09:40:34;14.40;99.90
16666;DHT22;8446;50.998;6.250;2023-04-15T09:43:03;14.50;99.90
16666;DHT22;8446;50.998;6.250;2023-04-15T09:45:31;14.80;99.90
16666;DHT22;8446;50.998;6.250;2023-04-15T09:47:59;15.00;99.90
16666;DHT22;8446;50.998;6.250;2023-04-15T09:50:40;15.00;99.90
16666;DHT22;8446;50.998;6.250;2023-04-15T09:53:08;15.20;99.90
16666;DHT22;8446;50.998;6.250;2023-04-15T09:55:35;15.20;99.90
16666;DHT22;8446;50.998;6.250;2023-04-15T09:58:07;15.20;99.90
16666;DHT22;8446;50.998;6.250;2023-04-15T10:00:35;15.00;99.90
16666;DHT22;8446;50.998;6.250;2023-04-15T10:03:04;15.00;99.90
16666;DHT22;8446;50.998;6.250;2023-04-15T10:05:32;14.90;99.90
16666;DHT22;8446;50.998;6.250;2023-04-15T10:07:59;14.90;99.90
16666;DHT22;8446;50.998;6.250;2023-04-15T10:10:27;14.70;99.90
16666;DHT22;8446;50.998;6.250;2023-04-15T10:12:54;14.70;99.90
16666;DHT22;8446;50.998;6.250;2023-04-15T10:15:23;14.60;99.90
16666;DHT22;8446;50.998;6.250;2023-04-15T10:17:52;14.50;99.90
16666;DHT22;8446;50.998;6.250;2023-04-15T10:20:21;14.40;99.90
16666;DHT22;8446;50.998;6.250;2023-04-15T10:22:49;14.00;99.90
16666;DHT22;8446;50.998;6.250;2023-04-15T10:25:17;14.00;99.90
16666;DHT22;8446;50.998;6.250;2023-04-15T10:27:44;14.40;99.90
16666;DHT22;8446;50.998;6.250;2023-04-15T10:30:13;14.50;99.90
16666;DHT22;8446;50.998;6.250;2023-04-15T10:32:42;14.60;99.90
16666;DHT22;8446;50.998;6.250;2023-04-15T10:35:10;14.70;99.90
16666;DHT22;8446;50.998;6.250;2023-04-15T10:37:37;14.80;99.90
16666;DHT22;8446;50.998;6.250;2023-04-15T10:40:23;14.60;99.90
16666;DHT22;8446;50.998;6.250;2023-04-15T10:42:52;14.40;99.90
16666;DHT22;8446;50.998;6.250;2023-04-15T10:45:19;14.50;99.90
16666;DHT22;8446;50.998;6.250;2023-04-15T10:47:51;14.60;99.90
16666;DHT22;8446;50.998;6.250;2023-04-15T10:50:18;14.70;99.90
16666;DHT22;8446;50.998;6.250;2023-04-15T10:52:44;14.50;99.90
16666;DHT22;8446;50.998;6.250;2023-04-15T10:55:13;14.60;99.90
16666;DHT22;8446;50.998;6.250;2023-04-15T10:57:41;14.50;99.90
16666;DHT22;8446;50.998;6.250;2023-04-15T11:00:10;14.50;99.90
16666;DHT22;8446;50.998;6.250;2023-04-15T11:02:45;14.50;99.90
16666;DHT22;8446;50.998;6.250;2023-04-15T11:05:14;14.80;99.90
16666;DHT22;8446;50.998;6.250;2023-04-15T11:07:50;15.00;99.90
16666;DHT22;8446;50.998;6.250;2023-04-15T11:10:51;15.00;99.90
16666;DHT22;8446;50.998;6.250;2023-04-15T11:13:25;15.30;99.90
16666;DHT22;8446;50.998;6.250;2023-04-15T11:16:01;15.70;99.90
16666;DHT22;8446;50.998;6.250;2023-04-15T11:18:32;16.20;99.90
16666;DHT22;8446;50.998;6.250;2023-04-15T11:21:03;16.60;99.90
16666;DHT22;8446;50.998;6.250;2023-04-15T11:23:32;16.80;99.90
16666;DHT22;8446;50.998;6.250;2023-04-15T11:26:00;16.70;99.90
16666;DHT22;8446;50.998;6.250;2023-04-15T11:28:27;16.50;99.90
16666;DHT22;8446;50.998;6.250;2023-04-15T11:30:55;16.50;99.90
16666;DHT22;8446;50.998;6.250;2023-04-15T11:33:23;16.50;99.90
16666;DHT22;8446;50.998;6.250;2023-04-15T11:35:51;16.60;99.90
16666;DHT22;8446;50.998;6.250;2023-04-15T11:38:20;16.70;99.90
16666;DHT22;8446;50.998;6.250;2023-04-15T11:40:47;16.80;99.90
16666;DHT22;8446;50.998;6.250;2023-04-15T11:43:16;16.50;99.90
16666;DHT22;8446;50.998;6.250;2023-04-15T11:45:50;16.30;99.90
16666;DHT22;8446;50.998;6.250;2023-04-15T11:48:18;16.40;99.90
16666;DHT22;8446;50.998;6.250;2023-04-15T11:50:45;15.90;99.90
16666;DHT22;8446;50.998;6.250;2023-04-15T11:53:12;16.10;99.90
16666;DHT22;8446;50.998;6.250;2023-04-15T11:55:45;16.20;99.90
16666;DHT22;8446;50.998;6.250;2023-04-15T11:58:14;16.00;99.90
16666;DHT22;8446;50.998;6.250;2023-04-15T12:00:46;15.90;99.90
16666;DHT22;8446;50.998;6.250;2023-04-15T12:03:18;15.90;99.90
16666;DHT22;8446;50.998;6.250;2023-04-15T12:06:18;16.00;99.90
16666;DHT22;8446;50.998;6.250;2023-04-15T12:09:07;16.00;99.90
16666;DHT22;8446;50.998;6.250;2023-04-15T12:11:43;16.50;99.90
16666;DHT22;8446;50.998;6.250;2023-04-15T12:14:14;16.90;99.90
16666;DHT22;8446;50.998;6.250;2023-04-15T12:16:43;17.60;99.90
16666;DHT22;8446;50.998;6.250;2023-04-15T12:19:12;17.70;99.90
16666;DHT22;8446;50.998;6.250;2023-04-15T12:21:40;17.40;99.90
16666;DHT22;8446;50.998;6.250;2023-04-15T12:24:08;17.50;99.90
16666;DHT22;8446;50.998;6.250;2023-04-15T12:26:43;17.50;99.90
16666;DHT22;8446;50.998;6.250;2023-04-15T12:29:11;17.60;99.90
16666;DHT22;8446;50.998;6.250;2023-04-15T12:31:46;17.60;99.90
16666;DHT22;8446;50.998;6.250;2023-04-15T12:34:15;17.70;99.90
16666;DHT22;8446;50.998;6.250;2023-04-15T12:36:42;18.40;99.90
16666;DHT22;8446;50.998;6.250;2023-04-15T12:39:09;18.40;99.90
16666;DHT22;8446;50.998;6.250;2023-04-15T12:41:37;18.30;99.90
16666;DHT22;8446;50.998;6.250;2023-04-15T12:44:04;18.10;99.90
16666;DHT22;8446;50.998;6.250;2023-04-15T12:46:31;18.30;99.90
16666;DHT22;8446;50.998;6.250;2023-04-15T12:48:57;18.70;99.90
16666;DHT22;8446;50.998;6.250;2023-04-15T12:51:24;19.40;99.90
16666;DHT22;8446;50.998;6.250;2023-04-15T12:53:52;19.60;99.90
16666;DHT22;8446;50.998;6.250;2023-04-15T12:56:18;19.50;99.90
16666;DHT22;8446;50.998;6.250;2023-04-15T12:58:47;19.30;99.90
16666;DHT22;8446;50.998;6.250;2023-04-15T13:01:13;18.90;99.90
16666;DHT22;8446;50.998;6.250;2023-04-15T13:03:40;18.00;99.90
16666;DHT22;8446;50.998;6.250;2023-04-15T13:06:07;17.40;99.90
16666;DHT22;8446;50.998;6.250;2023-04-15T13:08:34;17.40;99.90
16666;DHT22;8446;50.998;6.250;2023-04-15T13:11:00;17.80;99.90
16666;DHT22;8446;50.998;6.250;2023-04-15T13:13:27;17.80;99.90
16666;DHT22;8446;50.998;6.250;2023-04-15T13:15:58;18.20;99.90
16666;DHT22;8446;50.998;6.250;2023-04-15T13:18:25;17.90;99.90
16666;DHT22;8446;50.998;6.250;2023-04-15T13:20:53;18.30;99.90
16666;DHT22;8446;50.998;6.250;2023-04-15T13:23:20;18.00;99.90
16666;DHT22;8446;50.998;6.250;2023-04-15T13:25:47;18.60;99.90
16666;DHT22;8446;50.998;6.250;2023-04-15T13:28:14;18.20;99.90
16666;DHT22;8446;50.998;6.250;2023-04-15T13:30:41;17.40;99.90
16666;DHT22;8446;50.998;6.250;2023-04-15T13:33:10;17.30;99.90
16666;DHT22;8446;50.998;6.250;2023-04-15T13:35:38;16.80;99.90
16666;DHT22;8446;50.998;6.250;2023-04-15T13:38:05;16.70;99.90
16666;DHT22;8446;50.998;6.250;2023-04-15T13:40:32;16.30;99.90
16666;DHT22;8446;50.998;6.250;2023-04-15T13:42:58;16.60;99.90
16666;DHT22;8446;50.998;6.250;2023-04-15T13:45:26;16.70;99.90
16666;DHT22;8446;50.998;6.250;2023-04-15T13:47:54;16.60;99.90
16666;DHT22;8446;50.998;6.250;2023-04-15T13:50:22;16.10;99.90
16666;DHT22;8446;50.998;6.250;2023-04-15T13:52:49;15.80;99.90
16666;DHT22;8446;50.998;6.250;2023-04-15T13:55:16;15.80;99.90
16666;DHT22;8446;50.998;6.250;2023-04-15T13:57:43;16.10;99.90
16666;DHT22;8446;50.998;6.250;2023-04-15T14:00:11;16.40;99.90
16666;DHT22;8446;50.998;6.250;2023-04-15T14:02:39;16.50;99.90
16666;DHT22;8446;50.998;6.250;2023-04-15T14:05:06;16.20;99.90
16666;DHT22;8446;50.998;6.250;2023-04-15T14:07:34;16.20;99.90
16666;DHT22;8446;50.998;6.250;2023-04-15T14:10:01;16.30;99.90
16666;DHT22;8446;50.998;6.250;2023-04-15T14:12:28;16.10;99.90
16666;DHT22;8446;50.998;6.250;2023-04-15T14:14:55;15.90;99.90
16666;DHT22;8446;50.998;6.250;2023-04-15T14:17:22;15.80;99.90
16666;DHT22;8446;50.998;6.250;2023-04-15T14:19:48;15.70;99.90
16666;DHT22;8446;50.998;6.250;2023-04-15T14:22:15;15.50;99.90
16666;DHT22;8446;50.998;6.250;2023-04-15T14:24:44;15.20;99.90
16666;DHT22;8446;50.998;6.250;2023-04-15T14:27:13;15.20;99.90
16666;DHT22;8446;50.998;6.250;2023-04-15T14:29:40;15.40;99.90
16666;DHT22;8446;50.998;6.250;2023-04-15T14:32:06;15.50;99.90
16666;DHT22;8446;50.998;6.250;2023-04-15T14:34:33;15.50;99.90
16666;DHT22;8446;50.998;6.250;2023-04-15T14:37:01;15.30;99.90
16666;DHT22;8446;50.998;6.250;2023-04-15T14:39:28;15.40;99.90
16666;DHT22;8446;50.998;6.250;2023-04-15T14:41:56;15.60;99.90
16666;DHT22;8446;50.998;6.250;2023-04-15T14:44:22;16.20;99.90
16666;DHT22;8446;50.998;6.250;2023-04-15T14:46:50;16.90;99.90
16666;DHT22;8446;50.998;6.250;2023-04-15T14:49:17;17.80;99.90
16666;DHT22;8446;50.998;6.250;2023-04-15T14:51:43;18.50;99.90
16666;DHT22;8446;50.998;6.250;2023-04-15T14:54:10;19.10;99.90
16666;DHT22;8446;50.998;6.250;2023-04-15T14:56:37;18.90;99.90
16666;DHT22;8446;50.998;6.250;2023-04-15T14:59:05;18.20;99.90
16666;DHT22;8446;50.998;6.250;2023-04-15T15:01:32;18.00;99.90
16666;DHT22;8446;50.998;6.250;2023-04-15T15:03:59;18.30;99.90
16666;DHT22;8446;50.998;6.250;2023-04-15T15:06:26;18.40;99.90
16666;DHT22;8446;50.998;6.250;2023-04-15T15:08:53;18.30;99.90
16666;DHT22;8446;50.998;6.250;2023-04-15T15:11:20;18.10;99.90
16666;DHT22;8446;50.998;6.250;2023-04-15T15:13:46;18.00;99.90
16666;DHT22;8446;50.998;6.250;2023-04-15T15:16:14;17.40;99.90
16666;DHT22;8446;50.998;6.250;2023-04-15T15:18:41;17.30;99.90
16666;DHT22;8446;50.998;6.250;2023-04-15T15:21:09;17.00;99.90
16666;DHT22;8446;50.998;6.250;2023-04-15T15:23:35;17.20;99.90
16666;DHT22;8446;50.998;6.250;2023-04-15T15:26:02;17.60;99.90
16666;DHT22;8446;50.998;6.250;2023-04-15T15:28:29;17.90;99.90
16666;DHT22;8446;50.998;6.250;2023-04-15T15:30:56;18.00;99.90
16666;DHT22;8446;50.998;6.250;2023-04-15T15:33:24;17.90;99.90
16666;DHT22;8446;50.998;6.250;2023-04-15T15:35:51;18.30;99.90
16666;DHT22;8446;50.998;6.250;2023-04-15T15:38:17;18.30;99.90
16666;DHT22;8446;50.998;6.250;2023-04-15T15:40:45;18.20;99.90
16666;DHT22;8446;50.998;6.250;2023-04-15T15:43:11;18.10;99.90
16666;DHT22;8446;50.998;6.250;2023-04-15T15:45:39;17.80;99.90
16666;DHT22;8446;50.998;6.250;2023-04-15T15:48:06;18.10;99.90
16666;DHT22;8446;50.998;6.250;2023-04-15T15:50:34;17.80;99.90
16666;DHT22;8446;50.998;6.250;2023-04-15T15:53:01;17.20;99.90
16666;DHT22;8446;50.998;6.250;2023-04-15T15:55:27;17.10;99.90
16666;DHT22;8446;50.998;6.250;2023-04-15T15:57:54;17.20;99.90